Ecclesfield, United Kingdom
Current Conditions -  °F | °C
As of 3:50 PM on Monday 24 Nov 2014 (Local Time) from EGCN Reporting Station
Clear Clear  
Wind Chill: 44°   Ceiling: Unl
Heat Index: 46°   Visibility: 6mi
Dew Point: 41°   Wind: 5mph
Humidity: 81%   Direction: 270°W
Pressure: 30.33"   Gusts: NA
Location:  53.45°N, 1.47°W
Report Text: EGCN 241550Z 27004KT CAVOK 08/05 Q1027
Loading
Personal Weather Stations






























Interactive Weather Map New forecast layout! Learn more

10-Day Weather Forecast

Advertisements
Track Severe Weather on mobile